createdAt,value
2023-05-06T00:02:26.319Z,99626.22
2023-05-06T00:04:53.740Z,99623.75
2023-05-06T00:07:22.116Z,99638.28
2023-05-06T00:09:49.197Z,99635.38
2023-05-06T00:12:16.263Z,99627.78
2023-05-06T00:14:43.256Z,99633.28
2023-05-06T00:17:10.820Z,99634.69
2023-05-06T00:19:38.749Z,99640.59
2023-05-06T00:22:06.048Z,99636.66
2023-05-06T00:24:32.988Z,99635.56
2023-05-06T00:27:00.045Z,99627.53
2023-05-06T00:29:27.115Z,99648.84
2023-05-06T00:31:54.173Z,99643.09
2023-05-06T00:34:21.283Z,99641.00
2023-05-06T00:36:48.308Z,99643.19
2023-05-06T00:39:16.435Z,99639.25
2023-05-06T00:41:43.737Z,99651.94
2023-05-06T00:44:10.709Z,99637.34
2023-05-06T00:46:38.532Z,99642.69
2023-05-06T00:49:06.409Z,99642.22
2023-05-06T00:51:33.425Z,99640.56
2023-05-06T00:54:01.762Z,99639.94
2023-05-06T00:56:29.282Z,99644.19
2023-05-06T00:58:56.437Z,99651.56
2023-05-06T01:01:24.048Z,99644.09
2023-05-06T01:03:55.253Z,99646.31
2023-05-06T01:06:30.636Z,99657.72
2023-05-06T01:09:20.077Z,99649.09
2023-05-06T01:11:55.423Z,99652.31
2023-05-06T01:14:50.177Z,99651.22
2023-05-06T01:17:18.842Z,99657.56
2023-05-06T01:19:49.689Z,99666.22
2023-05-06T01:22:16.991Z,99655.53
2023-05-06T01:24:46.759Z,99672.16
2023-05-06T01:27:16.803Z,99650.22
2023-05-06T01:29:46.395Z,99658.84
2023-05-06T01:32:19.602Z,99657.38
2023-05-06T01:35:04.653Z,99665.75
2023-05-06T01:37:52.986Z,99655.28
2023-05-06T01:40:20.884Z,99664.25
2023-05-06T01:42:51.698Z,99666.28
2023-05-06T01:45:21.072Z,99661.50
2023-05-06T01:47:48.615Z,99660.50
2023-05-06T01:50:16.025Z,99661.50
2023-05-06T01:52:43.114Z,99667.47
2023-05-06T01:55:10.612Z,99662.34
2023-05-06T01:57:39.575Z,99667.66
2023-05-06T02:00:07.165Z,99669.31
2023-05-06T02:02:39.358Z,99670.97
2023-05-06T02:05:07.598Z,99677.13
2023-05-06T02:07:38.440Z,99672.63
2023-05-06T02:10:06.218Z,99681.56
2023-05-06T02:12:34.920Z,99680.72
2023-05-06T02:15:01.950Z,99692.03
2023-05-06T02:17:30.502Z,99677.50
2023-05-06T02:19:57.792Z,99681.91
2023-05-06T02:22:24.850Z,99679.50
2023-05-06T02:24:51.857Z,99681.06
2023-05-06T02:27:19.033Z,99692.81
2023-05-06T02:29:46.790Z,99689.84
2023-05-06T02:32:14.224Z,99680.63
2023-05-06T02:34:41.338Z,99684.69
2023-05-06T02:37:08.504Z,99695.41
2023-05-06T02:39:35.620Z,99686.84
2023-05-06T02:42:02.833Z,99686.66
2023-05-06T02:44:29.986Z,99688.75
2023-05-06T02:46:58.798Z,99700.09
2023-05-06T02:49:25.929Z,99689.91
2023-05-06T02:51:52.855Z,99694.41
2023-05-06T02:54:19.862Z,99697.34
2023-05-06T02:56:46.970Z,99698.78
2023-05-06T02:59:14.322Z,99696.13
2023-05-06T03:01:41.344Z,99702.09
2023-05-06T03:04:08.480Z,99701.72
2023-05-06T03:06:35.640Z,99704.56
2023-05-06T03:09:02.749Z,99698.78
2023-05-06T03:11:31.641Z,99719.13
2023-05-06T03:14:02.142Z,99722.81
2023-05-06T03:16:29.359Z,99710.28
2023-05-06T03:18:59.130Z,99712.78
2023-05-06T03:21:26.505Z,99720.41
2023-05-06T03:23:53.839Z,99716.31
2023-05-06T03:26:23.788Z,99714.94
2023-05-06T03:28:50.957Z,99735.06
2023-05-06T03:31:20.717Z,99718.41
2023-05-06T03:33:47.899Z,99730.16
2023-05-06T03:36:15.495Z,99733.66
2023-05-06T03:38:44.861Z,99726.88
2023-05-06T03:41:12.780Z,99730.56
2023-05-06T03:43:40.222Z,99735.06
2023-05-06T03:46:07.996Z,99747.84
2023-05-06T03:48:37.056Z,99746.38
2023-05-06T03:51:08.237Z,99746.13
2023-05-06T03:53:35.454Z,99733.16
2023-05-06T03:56:04.166Z,99729.72
2023-05-06T03:58:31.976Z,99734.56
2023-05-06T04:01:01.175Z,99725.66
2023-05-06T04:03:29.023Z,99732.78
2023-05-06T04:05:56.299Z,99747.00
2023-05-06T04:08:26.309Z,99756.28
2023-05-06T04:10:55.091Z,99740.63
2023-05-06T04:13:28.243Z,99752.72
2023-05-06T04:15:58.627Z,99736.84
2023-05-06T04:18:32.865Z,99737.72
2023-05-06T04:21:04.570Z,99737.28
2023-05-06T04:23:34.962Z,99748.16
2023-05-06T04:26:02.237Z,99748.78
2023-05-06T04:28:31.480Z,99742.03
2023-05-06T04:31:17.300Z,99747.44
2023-05-06T04:33:46.786Z,99748.13
2023-05-06T04:36:17.390Z,99748.63
2023-05-06T04:39:06.811Z,99750.94
2023-05-06T04:41:34.921Z,99752.59
2023-05-06T04:44:03.807Z,99753.03
2023-05-06T04:46:31.155Z,99768.47
2023-05-06T04:48:58.436Z,99753.72
2023-05-06T04:51:26.922Z,99760.13
2023-05-06T04:53:54.374Z,99766.06
2023-05-06T04:56:21.819Z,99768.06
2023-05-06T04:58:50.312Z,99760.06
2023-05-06T05:01:19.486Z,99758.47
2023-05-06T05:03:46.789Z,99762.19
2023-05-06T05:06:14.053Z,99762.66
2023-05-06T05:08:41.789Z,99750.16
2023-05-06T05:11:09.648Z,99765.06
2023-05-06T05:13:37.637Z,99771.06
2023-05-06T05:16:06.569Z,99763.91
2023-05-06T05:18:36.776Z,99771.78
2023-05-06T05:21:11.119Z,99766.91
2023-05-06T05:23:38.210Z,99764.84
2023-05-06T05:26:05.344Z,99774.56
2023-05-06T05:28:51.803Z,99775.38
2023-05-06T05:31:19.007Z,99769.00
2023-05-06T05:33:46.495Z,99764.88
2023-05-06T05:36:16.450Z,99760.72
2023-05-06T05:38:45.587Z,99766.09
2023-05-06T05:41:12.566Z,99761.56
2023-05-06T05:43:39.809Z,99772.28
2023-05-06T05:46:07.254Z,99775.78
2023-05-06T05:48:35.480Z,99771.66
2023-05-06T05:51:04.272Z,99765.06
2023-05-06T05:53:31.846Z,99773.78
2023-05-06T05:55:59.143Z,99777.69
2023-05-06T05:58:26.600Z,99776.06
2023-05-06T06:00:56.964Z,99780.00
2023-05-06T06:03:24.122Z,99788.25
2023-05-06T06:05:53.247Z,99781.41
2023-05-06T06:08:20.464Z,99785.53
2023-05-06T06:10:50.414Z,99791.13
2023-05-06T06:13:21.929Z,99784.75
2023-05-06T06:15:49.423Z,99789.69
2023-05-06T06:18:16.628Z,99779.81
2023-05-06T06:20:43.506Z,99783.91
2023-05-06T06:23:11.343Z,99792.16
2023-05-06T06:25:38.463Z,99782.44
2023-05-06T06:28:05.936Z,99797.09
2023-05-06T06:30:33.346Z,99791.72
2023-05-06T06:33:01.599Z,99794.63
2023-05-06T06:35:29.369Z,99792.78
2023-05-06T06:37:56.618Z,99794.22
2023-05-06T06:40:23.633Z,99805.56
2023-05-06T06:42:51.300Z,99813.00
2023-05-06T06:45:38.765Z,99817.72
2023-05-06T06:48:06.043Z,99798.75
2023-05-06T06:50:33.050Z,99789.06
2023-05-06T06:53:00.022Z,99801.19
2023-05-06T06:55:27.049Z,99800.78
2023-05-06T06:57:54.095Z,99807.38
2023-05-06T07:00:25.969Z,99823.25
2023-05-06T07:02:54.078Z,99812.09
2023-05-06T07:05:21.283Z,99832.50
2023-05-06T07:07:48.442Z,99836.03
2023-05-06T07:10:15.857Z,99819.72
2023-05-06T07:12:43.190Z,99823.38
2023-05-06T07:15:10.806Z,99838.00
2023-05-06T07:17:38.070Z,99821.25
2023-05-06T07:20:05.628Z,99822.22
2023-05-06T07:22:32.686Z,99824.84
2023-05-06T07:24:59.740Z,99833.69
2023-05-06T07:27:27.537Z,99820.69
2023-05-06T07:29:54.526Z,99826.19
2023-05-06T07:32:21.549Z,99832.53
2023-05-06T07:34:48.603Z,99833.31
2023-05-06T07:37:15.774Z,99847.38
2023-05-06T07:39:43.331Z,99829.38
2023-05-06T07:42:13.234Z,99835.19
2023-05-06T07:44:40.651Z,99839.78
2023-05-06T07:47:07.793Z,99841.00
2023-05-06T07:49:35.425Z,99830.25
2023-05-06T07:52:03.685Z,99828.28
2023-05-06T07:54:31.890Z,99830.28
2023-05-06T07:56:59.134Z,99828.59
2023-05-06T07:59:26.256Z,99833.25
2023-05-06T08:01:53.505Z,99822.13
2023-05-06T08:04:20.617Z,99844.78
2023-05-06T08:06:47.938Z,99829.69
2023-05-06T08:09:19.926Z,99816.78
2023-05-06T08:11:50.374Z,99828.25
2023-05-06T08:14:17.453Z,99839.31
2023-05-06T08:16:44.660Z,99834.75
2023-05-06T08:19:11.661Z,99824.94
2023-05-06T08:21:38.778Z,99834.03
2023-05-06T08:24:06.233Z,99844.75
2023-05-06T08:26:33.510Z,99837.34
2023-05-06T08:29:00.854Z,99835.28
2023-05-06T08:31:28.555Z,99831.63
2023-05-06T08:33:55.693Z,99837.06
2023-05-06T08:36:22.682Z,99850.91
2023-05-06T08:38:51.033Z,99840.09
2023-05-06T08:41:21.490Z,99843.44
2023-05-06T08:43:50.558Z,99827.88
2023-05-06T08:46:18.341Z,99828.56
2023-05-06T08:48:45.879Z,99829.03
2023-05-06T08:51:17.558Z,99843.09
2023-05-06T08:53:48.946Z,99840.06
2023-05-06T08:56:16.918Z,99828.63
2023-05-06T08:58:46.746Z,99836.09
2023-05-06T09:01:16.057Z,99833.56
2023-05-06T09:03:44.333Z,99825.63
2023-05-06T09:06:11.703Z,99826.75
2023-05-06T09:08:38.710Z,99836.34
2023-05-06T09:11:26.570Z,99834.31
2023-05-06T09:14:17.753Z,99815.38
2023-05-06T09:16:46.975Z,99836.09
2023-05-06T09:19:16.098Z,99828.22
2023-05-06T09:21:45.573Z,99844.91
2023-05-06T09:24:14.314Z,99840.91
2023-05-06T09:26:43.541Z,99863.41
2023-05-06T09:29:11.233Z,99822.84
2023-05-06T09:31:43.179Z,99830.66
2023-05-06T09:34:11.491Z,99830.84
2023-05-06T09:36:38.760Z,99836.78
2023-05-06T09:39:06.880Z,99838.13
2023-05-06T09:41:33.947Z,99838.19
2023-05-06T09:44:01.562Z,99847.75
2023-05-06T09:46:29.230Z,99852.91
2023-05-06T09:48:58.303Z,99849.25
2023-05-06T09:51:27.999Z,99875.72
2023-05-06T09:53:56.722Z,99858.41
2023-05-06T09:56:24.966Z,99859.38
2023-05-06T09:58:52.674Z,99869.31
2023-05-06T10:01:32.669Z,99856.59
2023-05-06T10:04:10.215Z,99842.53
2023-05-06T10:06:40.364Z,99837.13
2023-05-06T10:09:09.325Z,99860.13
2023-05-06T10:11:37.015Z,99860.13
2023-05-06T10:14:04.449Z,99848.50
2023-05-06T10:16:33.566Z,99843.56
2023-05-06T10:19:01.426Z,99841.47
2023-05-06T10:21:32.678Z,99876.44
2023-05-06T10:24:09.718Z,99838.41
2023-05-06T10:26:37.689Z,99866.50
2023-05-06T10:29:10.308Z,99843.63
2023-05-06T10:31:57.843Z,99859.00
2023-05-06T10:34:26.437Z,99857.00
2023-05-06T10:36:57.734Z,99844.16
2023-05-06T10:39:26.129Z,99848.97
2023-05-06T10:41:53.390Z,99838.41
2023-05-06T10:44:58.580Z,99832.25
2023-05-06T10:47:26.024Z,99842.81
2023-05-06T10:50:22.004Z,99848.81
2023-05-06T10:52:52.540Z,99845.03
2023-05-06T10:55:30.322Z,99861.00
2023-05-06T10:58:18.524Z,99841.41
2023-05-06T11:00:58.238Z,99849.34
2023-05-06T11:03:25.538Z,99854.25
2023-05-06T11:05:53.021Z,99855.78
2023-05-06T11:08:25.681Z,99856.25
2023-05-06T11:10:53.410Z,99861.88
2023-05-06T11:13:27.925Z,99865.22
2023-05-06T11:15:57.204Z,99876.81
2023-05-06T11:18:32.013Z,99886.34
2023-05-06T11:21:03.730Z,99864.16
2023-05-06T11:23:43.470Z,99860.72
2023-05-06T11:26:11.327Z,99871.56
2023-05-06T11:28:39.313Z,99854.97
2023-05-06T11:31:08.024Z,99853.25
2023-05-06T11:33:36.624Z,99846.56
2023-05-06T11:36:05.200Z,99844.88
2023-05-06T11:38:45.990Z,99843.25
2023-05-06T11:41:14.478Z,99846.91
2023-05-06T11:43:46.708Z,99845.91
2023-05-06T11:46:13.747Z,99839.91
2023-05-06T11:48:40.697Z,99842.16
2023-05-06T11:51:08.345Z,99844.19
2023-05-06T11:53:35.597Z,99838.25
2023-05-06T11:56:03.106Z,99840.84
2023-05-06T11:58:30.547Z,99844.47
2023-05-06T12:00:59.530Z,99850.56
2023-05-06T12:03:28.836Z,99858.41
2023-05-06T12:05:56.582Z,99854.97
2023-05-06T12:08:30.326Z,99850.25
2023-05-06T12:11:15.431Z,99850.75
2023-05-06T12:13:42.420Z,99847.25
2023-05-06T12:16:09.750Z,99850.91
2023-05-06T12:18:37.242Z,99863.81
2023-05-06T12:21:04.514Z,99878.91
2023-05-06T12:23:31.816Z,99868.34
2023-05-06T12:26:06.888Z,99864.19
2023-05-06T12:28:36.322Z,99852.91
2023-05-06T12:31:23.382Z,99867.69
2023-05-06T12:33:50.838Z,99847.75
2023-05-06T12:36:19.260Z,99854.72
2023-05-06T12:39:02.100Z,99856.66
2023-05-06T12:41:40.951Z,99867.38
2023-05-06T12:44:33.670Z,99853.53
2023-05-06T12:47:02.502Z,99857.28
2023-05-06T12:49:45.726Z,99838.81
2023-05-06T12:52:12.819Z,99846.13
2023-05-06T12:54:40.099Z,99850.44
2023-05-06T12:57:07.618Z,99861.13
2023-05-06T12:59:36.654Z,99865.56
2023-05-06T13:02:05.074Z,99876.19
2023-05-06T13:04:32.347Z,99864.63
2023-05-06T13:06:59.515Z,99886.13
2023-05-06T13:09:26.548Z,99906.84
2023-05-06T13:11:53.767Z,99876.94
2023-05-06T13:14:21.955Z,99872.03
2023-05-06T13:16:49.649Z,99861.69
2023-05-06T13:21:46.825Z,99870.41
2023-05-06T13:24:13.959Z,99877.81
2023-05-06T13:26:40.948Z,99884.47
2023-05-06T13:29:08.371Z,99873.84
2023-05-06T13:31:35.457Z,99874.19
2023-05-06T13:34:02.721Z,99887.19
2023-05-06T13:36:30.065Z,99883.41
2023-05-06T13:38:57.076Z,99875.28
2023-05-06T13:41:25.486Z,99884.47
2023-05-06T13:43:52.597Z,99874.97
2023-05-06T13:46:20.121Z,99875.28
2023-05-06T13:48:47.199Z,99875.28
2023-05-06T13:51:14.181Z,99871.53
2023-05-06T13:53:41.253Z,99894.19
2023-05-06T13:56:08.304Z,99874.56
2023-05-06T13:58:36.133Z,99885.88
2023-05-06T14:01:03.675Z,99883.91
2023-05-06T14:03:30.726Z,99872.09
2023-05-06T14:05:57.935Z,99880.59
2023-05-06T14:08:24.970Z,99891.25
2023-05-06T14:10:51.959Z,99870.00
2023-05-06T14:13:18.945Z,99875.41
2023-05-06T14:15:46.314Z,99891.13
2023-05-06T14:18:13.382Z,99884.84
2023-05-06T14:20:40.420Z,99911.78
2023-05-06T14:23:07.494Z,99899.41
2023-05-06T14:25:34.440Z,99910.31
2023-05-06T14:28:02.467Z,99922.56
2023-05-06T14:30:30.160Z,99918.91
2023-05-06T14:32:57.227Z,99903.56
2023-05-06T14:35:24.437Z,99898.97
2023-05-06T14:37:51.753Z,99900.13
2023-05-06T14:40:18.915Z,99910.47
2023-05-06T14:42:46.460Z,99892.91
2023-05-06T14:45:13.979Z,99896.63
2023-05-06T14:47:41.124Z,99886.00
2023-05-06T14:50:10.749Z,99892.53
2023-05-06T14:52:39.321Z,99894.19
2023-05-06T14:55:08.510Z,99880.50
2023-05-06T14:57:36.102Z,99883.94
2023-05-06T15:00:10.215Z,99890.38
2023-05-06T15:02:40.971Z,99878.09
2023-05-06T15:05:09.757Z,99880.78
2023-05-06T15:07:37.154Z,99887.13
2023-05-06T15:10:04.692Z,99886.00
2023-05-06T15:12:33.489Z,99902.97
2023-05-06T15:15:00.719Z,99908.97
2023-05-06T15:17:27.797Z,99901.91
2023-05-06T15:19:54.939Z,99891.44
2023-05-06T15:22:21.956Z,99893.22
2023-05-06T15:24:49.000Z,99916.56
2023-05-06T15:27:16.105Z,99898.44
2023-05-06T15:29:43.381Z,99913.22
2023-05-06T15:32:10.569Z,99887.69
2023-05-06T15:34:39.300Z,99903.53
2023-05-06T15:37:06.382Z,99883.59
2023-05-06T15:39:39.754Z,99887.69
2023-05-06T15:42:06.753Z,99881.34
2023-05-06T15:44:34.210Z,99896.91
2023-05-06T15:47:01.358Z,99888.28
2023-05-06T15:52:00.850Z,99894.66
2023-05-06T15:54:29.027Z,99886.47
2023-05-06T15:56:56.860Z,99897.66
2023-05-06T15:59:24.046Z,99890.84
2023-05-06T16:02:25.681Z,99874.88
2023-05-06T16:04:38.253Z,99900.09
2023-05-06T16:07:05.782Z,99902.31
2023-05-06T16:09:33.002Z,99897.50
2023-05-06T16:12:01.437Z,99897.94
2023-05-06T16:14:28.349Z,99894.75
2023-05-06T16:16:55.309Z,99891.06
2023-05-06T16:19:22.361Z,99897.00
2023-05-06T16:21:49.484Z,99903.88
2023-05-06T16:24:16.460Z,99907.56
2023-05-06T16:26:43.371Z,99912.53
2023-05-06T16:29:11.146Z,99904.25
2023-05-06T16:31:38.355Z,99913.78
2023-05-06T16:34:05.644Z,99906.44
2023-05-06T16:36:32.876Z,99896.72
2023-05-06T16:39:00.063Z,99908.41
2023-05-06T16:41:26.999Z,99909.53
2023-05-06T16:43:54.471Z,99915.16
2023-05-06T16:46:24.139Z,99918.56
2023-05-06T16:48:52.313Z,99920.53
2023-05-06T16:51:19.768Z,99926.69
2023-05-06T16:53:46.731Z,99940.88
2023-05-06T16:56:13.969Z,99929.91
2023-05-06T16:58:42.690Z,99935.66
2023-05-06T17:01:10.113Z,99920.75
2023-05-06T17:03:38.321Z,99937.44
2023-05-06T17:06:08.146Z,99943.66
2023-05-06T17:08:36.755Z,99941.78
2023-05-06T17:11:07.001Z,99936.72
2023-05-06T17:13:35.040Z,99940.31
2023-05-06T17:16:02.229Z,99949.06
2023-05-06T17:18:29.254Z,99957.97
2023-05-06T17:20:57.900Z,99948.75
2023-05-06T17:23:25.201Z,99951.84
2023-05-06T17:25:52.200Z,99958.69
2023-05-06T17:28:19.449Z,99965.50
2023-05-06T17:30:46.941Z,99959.28
2023-05-06T17:33:14.276Z,99979.75
2023-05-06T17:35:41.224Z,99969.84
2023-05-06T17:38:10.223Z,99972.31
2023-05-06T17:40:37.104Z,99975.41
2023-05-06T17:43:04.029Z,99971.69
2023-05-06T17:45:31.143Z,99988.41
2023-05-06T17:47:58.185Z,99990.88
2023-05-06T17:50:25.294Z,99986.13
2023-05-06T17:52:54.622Z,99990.25
2023-05-06T17:55:23.039Z,99992.50
2023-05-06T17:57:50.428Z,99983.63
2023-05-06T18:00:17.829Z,99986.09
2023-05-06T18:02:45.441Z,99981.75
2023-05-06T18:05:13.698Z,99994.09
2023-05-06T18:07:41.150Z,99996.97
2023-05-06T18:10:08.780Z,99989.94
2023-05-06T18:12:36.187Z,99990.31
2023-05-06T18:15:03.556Z,99997.94
2023-05-06T18:17:31.835Z,99998.75
2023-05-06T18:19:58.891Z,99999.75
2023-05-06T18:22:25.873Z,100001.59
2023-05-06T18:24:55.447Z,99999.69
2023-05-06T18:27:23.312Z,100004.81
2023-05-06T18:29:50.588Z,100007.47
2023-05-06T18:32:20.455Z,99992.78
2023-05-06T18:34:47.543Z,100001.38
2023-05-06T18:37:14.601Z,100009.81
2023-05-06T18:39:42.803Z,100005.25
2023-05-06T18:42:11.070Z,100018.41
2023-05-06T18:44:38.121Z,100018.78
2023-05-06T18:47:05.492Z,100004.53
2023-05-06T18:49:32.465Z,100004.06
2023-05-06T18:52:00.256Z,100016.63
2023-05-06T18:54:27.191Z,100018.88
2023-05-06T18:56:54.955Z,100017.63
2023-05-06T18:59:22.431Z,100014.31
2023-05-06T19:01:49.478Z,100000.50
2023-05-06T19:04:17.533Z,100022.09
2023-05-06T19:06:44.880Z,100028.47
2023-05-06T19:09:11.978Z,100020.00
2023-05-06T19:11:38.925Z,100025.56
2023-05-06T19:14:05.971Z,100014.78
2023-05-06T19:16:33.237Z,100006.94
2023-05-06T19:19:02.657Z,100018.22
2023-05-06T19:21:29.910Z,100011.81
2023-05-06T19:23:59.952Z,100007.66
2023-05-06T19:26:27.864Z,100007.63
2023-05-06T19:28:55.014Z,100011.31
2023-05-06T19:31:23.400Z,100016.03
2023-05-06T19:33:50.629Z,100019.72
2023-05-06T19:36:17.698Z,100009.56
2023-05-06T19:38:44.622Z,100010.59
2023-05-06T19:41:11.758Z,100021.91
2023-05-06T19:43:43.360Z,100016.97
2023-05-06T19:46:13.730Z,100020.00
2023-05-06T19:48:40.862Z,100009.91
2023-05-06T19:51:08.252Z,100009.66
2023-05-06T19:53:36.250Z,100022.19
2023-05-06T19:56:11.034Z,100010.22
2023-05-06T19:58:38.766Z,100009.78
2023-05-06T20:01:05.902Z,100021.88
2023-05-06T20:03:33.636Z,100005.16
2023-05-06T20:06:01.063Z,100015.22
2023-05-06T20:08:28.353Z,100014.78
2023-05-06T20:10:55.442Z,100023.16
2023-05-06T20:13:22.499Z,100012.59
2023-05-06T20:15:50.040Z,100014.06
2023-05-06T20:18:17.137Z,100024.94
2023-05-06T20:20:44.277Z,100026.16
2023-05-06T20:23:12.251Z,100030.88
2023-05-06T20:25:39.244Z,100029.22
2023-05-06T20:28:07.065Z,100023.41
2023-05-06T20:30:34.580Z,100024.63
2023-05-06T20:33:01.760Z,100031.50
2023-05-06T20:35:28.840Z,100025.16
2023-05-06T20:37:56.067Z,100029.03
2023-05-06T20:40:23.202Z,100026.53
2023-05-06T20:42:50.135Z,100029.41
2023-05-06T20:45:17.362Z,100025.28
2023-05-06T20:47:44.697Z,100032.66
2023-05-06T20:50:17.158Z,100027.69
2023-05-06T20:52:47.701Z,100024.19
2023-05-06T20:55:16.048Z,100028.06
2023-05-06T20:57:44.250Z,100029.91
2023-05-06T21:00:11.918Z,100028.44
2023-05-06T21:02:41.169Z,100041.31
2023-05-06T21:05:10.166Z,100033.50
2023-05-06T21:07:37.421Z,100038.53
2023-05-06T21:10:05.998Z,100030.34
2023-05-06T21:12:33.724Z,100035.03
2023-05-06T21:15:01.429Z,100032.09
2023-05-06T21:17:29.205Z,100037.63
2023-05-06T21:19:56.459Z,100038.66
2023-05-06T21:22:24.062Z,100037.19
2023-05-06T21:24:51.361Z,100036.72
2023-05-06T21:27:18.515Z,100042.25
2023-05-06T21:29:45.627Z,100036.25
2023-05-06T21:32:12.593Z,100042.63
2023-05-06T21:34:39.759Z,100043.63
2023-05-06T21:37:06.794Z,100036.31
2023-05-06T21:39:33.911Z,100036.31
2023-05-06T21:42:01.142Z,100039.38
2023-05-06T21:44:28.115Z,100042.59
2023-05-06T21:46:55.151Z,100047.09
2023-05-06T21:49:22.445Z,100042.31
2023-05-06T21:51:49.689Z,100047.84
2023-05-06T21:54:17.490Z,100045.16
2023-05-06T21:56:44.932Z,100046.19
2023-05-06T21:59:11.929Z,100045.53
2023-05-06T22:01:38.983Z,100044.69
2023-05-06T22:04:11.492Z,100045.06
2023-05-06T22:06:39.569Z,100044.59
2023-05-06T22:09:09.766Z,100046.25
2023-05-06T22:11:38.536Z,100050.94
2023-05-06T22:14:06.861Z,100050.94
2023-05-06T22:16:35.560Z,100055.63
2023-05-06T22:19:04.072Z,100051.47
2023-05-06T22:21:32.568Z,100055.97
2023-05-06T22:23:59.759Z,100062.50
2023-05-06T22:26:28.329Z,100063.69
2023-05-06T22:28:56.600Z,100060.38
2023-05-06T22:31:24.910Z,100048.25
2023-05-06T22:33:57.894Z,100055.22
2023-05-06T22:36:29.407Z,100052.09
2023-05-06T22:38:56.529Z,100058.25
2023-05-06T22:41:23.372Z,100052.66
2023-05-06T22:43:50.407Z,100068.66
2023-05-06T22:46:17.763Z,100064.69
2023-05-06T22:48:46.369Z,100064.03
2023-05-06T22:51:18.782Z,100068.03
2023-05-06T22:53:45.859Z,100060.41
2023-05-06T22:56:12.928Z,100061.78
2023-05-06T22:58:39.876Z,100064.44
2023-05-06T23:01:07.583Z,100069.13
2023-05-06T23:03:35.513Z,100066.00
2023-05-06T23:06:03.962Z,100075.00
2023-05-06T23:08:30.898Z,100072.69
2023-05-06T23:10:57.987Z,100073.69
2023-05-06T23:13:25.025Z,100070.56
2023-05-06T23:15:52.057Z,100072.41
2023-05-06T23:18:20.726Z,100081.41
2023-05-06T23:20:47.854Z,100067.75
2023-05-06T23:23:14.946Z,100075.09
2023-05-06T23:25:41.865Z,100083.09
2023-05-06T23:28:09.004Z,100085.09
2023-05-06T23:30:36.142Z,100079.94
2023-05-06T23:33:03.870Z,100085.63
2023-05-06T23:35:31.065Z,100076.81
2023-05-06T23:37:58.367Z,100083.50
2023-05-06T23:40:25.423Z,100080.00
2023-05-06T23:42:52.673Z,100083.03
2023-05-06T23:45:20.515Z,100081.56
2023-05-06T23:47:47.535Z,100083.75
2023-05-06T23:50:14.804Z,100078.59
2023-05-06T23:52:41.894Z,100091.09
2023-05-06T23:55:09.674Z,100085.94
2023-05-06T23:57:36.922Z,100085.25
